sensor_id;sensor_type;location;lat;lon;timestamp;pressure;altitude;pressure_sealevel;temperature;humidity
10462;BME280;5278;42.656;23.374;2022-09-06T00:00:10;95302.91;;;20.93;62.44
10462;BME280;5278;42.656;23.374;2022-09-06T00:02:38;95295.44;;;20.72;62.98
10462;BME280;5278;42.656;23.374;2022-09-06T00:05:06;95293.59;;;20.54;64.17
10462;BME280;5278;42.656;23.374;2022-09-06T00:07:34;95296.59;;;20.76;63.87
10462;BME280;5278;42.656;23.374;2022-09-06T00:10:03;95288.78;;;21.18;62.65
10462;BME280;5278;42.656;23.374;2022-09-06T00:12:31;95291.50;;;21.29;61.49
10462;BME280;5278;42.656;23.374;2022-09-06T00:14:58;95255.47;;;21.17;60.86
10462;BME280;5278;42.656;23.374;2022-09-06T00:17:25;95287.84;;;21.42;60.96
10462;BME280;5278;42.656;23.374;2022-09-06T00:19:51;95288.34;;;21.51;59.71
10462;BME280;5278;42.656;23.374;2022-09-06T00:22:18;95288.09;;;21.40;60.05
10462;BME280;5278;42.656;23.374;2022-09-06T00:24:45;95295.91;;;21.35;61.01
10462;BME280;5278;42.656;23.374;2022-09-06T00:27:13;95285.63;;;21.69;59.54
10462;BME280;5278;42.656;23.374;2022-09-06T00:29:40;95291.75;;;21.69;59.26
10462;BME280;5278;42.656;23.374;2022-09-06T00:32:07;95310.06;;;21.41;59.85
10462;BME280;5278;42.656;23.374;2022-09-06T00:34:34;95286.97;;;21.18;60.58
10462;BME280;5278;42.656;23.374;2022-09-06T00:37:01;95200.56;;;20.52;60.96
10462;BME280;5278;42.656;23.374;2022-09-06T00:39:28;95291.09;;;20.96;61.55
10462;BME280;5278;42.656;23.374;2022-09-06T00:41:54;95295.78;;;20.94;60.92
10462;BME280;5278;42.656;23.374;2022-09-06T00:44:23;95290.00;;;20.85;62.19
10462;BME280;5278;42.656;23.374;2022-09-06T00:46:51;95285.94;;;20.83;62.48
10462;BME280;5278;42.656;23.374;2022-09-06T00:49:22;95289.94;;;20.92;61.66
10462;BME280;5278;42.656;23.374;2022-09-06T00:51:52;95291.22;;;20.83;62.13
10462;BME280;5278;42.656;23.374;2022-09-06T00:54:21;95288.03;;;20.81;62.75
10462;BME280;5278;42.656;23.374;2022-09-06T00:56:48;95279.59;;;20.72;63.18
10462;BME280;5278;42.656;23.374;2022-09-06T00:59:16;95286.69;;;20.90;62.24
10462;BME280;5278;42.656;23.374;2022-09-06T01:01:44;95285.28;;;21.05;62.17
10462;BME280;5278;42.656;23.374;2022-09-06T01:04:12;95280.19;;;21.22;61.45
10462;BME280;5278;42.656;23.374;2022-09-06T01:06:48;95288.38;;;21.32;60.88
10462;BME280;5278;42.656;23.374;2022-09-06T01:09:24;95289.72;;;21.41;60.30
10462;BME280;5278;42.656;23.374;2022-09-06T01:12:07;95294.09;;;21.47;60.30
10462;BME280;5278;42.656;23.374;2022-09-06T01:14:46;95293.94;;;21.31;60.08
10462;BME280;5278;42.656;23.374;2022-09-06T01:17:26;95291.72;;;21.10;60.85
10462;BME280;5278;42.656;23.374;2022-09-06T01:20:36;95294.31;;;20.98;62.04
10462;BME280;5278;42.656;23.374;2022-09-06T01:26:45;95285.75;;;21.32;60.80
10462;BME280;5278;42.656;23.374;2022-09-06T01:29:25;95285.78;;;21.44;60.05
10462;BME280;5278;42.656;23.374;2022-09-06T01:32:03;95278.53;;;21.39;60.38
10462;BME280;5278;42.656;23.374;2022-09-06T01:34:40;95288.56;;;21.19;60.50
10462;BME280;5278;42.656;23.374;2022-09-06T01:37:10;95286.41;;;21.28;60.92
10462;BME280;5278;42.656;23.374;2022-09-06T01:39:39;95248.06;;;20.89;60.70
10462;BME280;5278;42.656;23.374;2022-09-06T01:42:09;95276.16;;;21.20;60.95
10462;BME280;5278;42.656;23.374;2022-09-06T01:44:40;95270.78;;;21.08;61.33
10462;BME280;5278;42.656;23.374;2022-09-06T01:47:20;95264.47;;;21.27;60.95
10462;BME280;5278;42.656;23.374;2022-09-06T01:49:57;95263.84;;;21.43;60.05
10462;BME280;5278;42.656;23.374;2022-09-06T01:52:32;95261.00;;;21.57;59.65
10462;BME280;5278;42.656;23.374;2022-09-06T01:55:15;95264.16;;;21.35;60.45
10462;BME280;5278;42.656;23.374;2022-09-06T01:58:00;95261.03;;;21.27;60.10
10462;BME280;5278;42.656;23.374;2022-09-06T02:00:37;95255.47;;;21.46;60.06
10462;BME280;5278;42.656;23.374;2022-09-06T02:03:09;95254.53;;;21.41;60.05
10462;BME280;5278;42.656;23.374;2022-09-06T02:05:39;95243.03;;;21.17;60.39
10462;BME280;5278;42.656;23.374;2022-09-06T02:08:10;95250.78;;;21.00;60.79
10462;BME280;5278;42.656;23.374;2022-09-06T02:10:44;95257.47;;;20.85;61.92
10462;BME280;5278;42.656;23.374;2022-09-06T02:13:13;95251.34;;;21.02;61.45
10462;BME280;5278;42.656;23.374;2022-09-06T02:15:46;95247.22;;;21.25;60.83
10462;BME280;5278;42.656;23.374;2022-09-06T02:18:20;95230.00;;;21.04;61.07
10462;BME280;5278;42.656;23.374;2022-09-06T02:20:50;95245.81;;;21.22;61.17
10462;BME280;5278;42.656;23.374;2022-09-06T02:23:23;95249.13;;;21.47;60.10
10462;BME280;5278;42.656;23.374;2022-09-06T02:25:53;95250.31;;;21.52;60.18
10462;BME280;5278;42.656;23.374;2022-09-06T02:28:22;95254.25;;;21.31;60.23
10462;BME280;5278;42.656;23.374;2022-09-06T02:30:55;95251.50;;;21.37;60.26
10462;BME280;5278;42.656;23.374;2022-09-06T02:33:25;95257.66;;;21.50;60.00
10462;BME280;5278;42.656;23.374;2022-09-06T02:35:54;95259.06;;;21.64;59.22
10462;BME280;5278;42.656;23.374;2022-09-06T02:38:22;95262.50;;;21.64;59.54
10462;BME280;5278;42.656;23.374;2022-09-06T02:40:51;95260.25;;;21.79;59.10
10462;BME280;5278;42.656;23.374;2022-09-06T02:43:19;95251.97;;;21.76;58.02
10462;BME280;5278;42.656;23.374;2022-09-06T02:45:46;95180.53;;;21.23;59.03
10462;BME280;5278;42.656;23.374;2022-09-06T02:48:15;95262.78;;;21.86;58.28
10462;BME280;5278;42.656;23.374;2022-09-06T02:50:41;95263.06;;;21.96;58.18
10462;BME280;5278;42.656;23.374;2022-09-06T02:53:10;95274.53;;;21.90;58.19
10462;BME280;5278;42.656;23.374;2022-09-06T02:55:37;95263.47;;;21.93;57.91
10462;BME280;5278;42.656;23.374;2022-09-06T02:58:08;95274.91;;;21.94;57.30
10462;BME280;5278;42.656;23.374;2022-09-06T03:00:36;95267.50;;;21.84;57.64
10462;BME280;5278;42.656;23.374;2022-09-06T03:03:03;95256.97;;;21.96;57.65
10462;BME280;5278;42.656;23.374;2022-09-06T03:05:31;95259.03;;;22.05;56.95
10462;BME280;5278;42.656;23.374;2022-09-06T03:07:58;95263.97;;;22.13;56.95
10462;BME280;5278;42.656;23.374;2022-09-06T03:10:26;95261.69;;;22.05;57.29
10462;BME280;5278;42.656;23.374;2022-09-06T03:12:52;95258.19;;;21.81;57.87
10462;BME280;5278;42.656;23.374;2022-09-06T03:15:19;95246.28;;;21.61;58.58
10462;BME280;5278;42.656;23.374;2022-09-06T03:17:46;95254.41;;;21.47;58.75
10462;BME280;5278;42.656;23.374;2022-09-06T03:20:13;95256.75;;;21.56;58.84
10462;BME280;5278;42.656;23.374;2022-09-06T03:22:41;95255.41;;;21.76;58.16
10462;BME280;5278;42.656;23.374;2022-09-06T03:25:09;95257.63;;;21.91;57.81
10462;BME280;5278;42.656;23.374;2022-09-06T03:27:36;95255.28;;;21.83;57.65
10462;BME280;5278;42.656;23.374;2022-09-06T03:30:05;95261.44;;;21.95;57.48
10462;BME280;5278;42.656;23.374;2022-09-06T03:32:32;95259.72;;;22.01;57.49
10462;BME280;5278;42.656;23.374;2022-09-06T03:34:59;95240.28;;;21.95;56.67
10462;BME280;5278;42.656;23.374;2022-09-06T03:37:26;95268.25;;;22.26;56.57
10462;BME280;5278;42.656;23.374;2022-09-06T03:39:54;95273.44;;;22.21;56.71
10462;BME280;5278;42.656;23.374;2022-09-06T03:42:21;95281.13;;;22.22;56.56
10462;BME280;5278;42.656;23.374;2022-09-06T03:44:50;95277.31;;;22.18;56.25
10462;BME280;5278;42.656;23.374;2022-09-06T03:47:17;95273.63;;;22.08;56.80
10462;BME280;5278;42.656;23.374;2022-09-06T03:49:44;95280.19;;;22.17;56.44
10462;BME280;5278;42.656;23.374;2022-09-06T03:52:11;95276.19;;;22.26;55.70
10462;BME280;5278;42.656;23.374;2022-09-06T03:54:38;95280.69;;;22.25;55.56
10462;BME280;5278;42.656;23.374;2022-09-06T03:57:06;95278.13;;;22.19;56.15
10462;BME280;5278;42.656;23.374;2022-09-06T03:59:33;95276.28;;;22.19;56.62
10462;BME280;5278;42.656;23.374;2022-09-06T04:02:00;95294.94;;;22.24;56.69
10462;BME280;5278;42.656;23.374;2022-09-06T04:04:27;95287.00;;;22.24;56.11
10462;BME280;5278;42.656;23.374;2022-09-06T04:06:54;95281.59;;;22.19;55.99
10462;BME280;5278;42.656;23.374;2022-09-06T04:09:20;95284.69;;;22.05;55.90
10462;BME280;5278;42.656;23.374;2022-09-06T04:11:47;95254.41;;;21.47;57.57
10462;BME280;5278;42.656;23.374;2022-09-06T04:14:16;95296.38;;;21.85;57.25
10462;BME280;5278;42.656;23.374;2022-09-06T04:16:43;95293.06;;;21.90;56.99
10462;BME280;5278;42.656;23.374;2022-09-06T04:19:09;95298.78;;;21.87;57.16
10462;BME280;5278;42.656;23.374;2022-09-06T04:21:36;95287.91;;;21.95;57.25
10462;BME280;5278;42.656;23.374;2022-09-06T04:24:03;95285.66;;;21.92;57.16
10462;BME280;5278;42.656;23.374;2022-09-06T04:26:30;95281.81;;;22.06;57.04
10462;BME280;5278;42.656;23.374;2022-09-06T04:28:57;95257.88;;;22.24;55.83
10462;BME280;5278;42.656;23.374;2022-09-06T04:31:25;95276.03;;;22.79;54.52
10462;BME280;5278;42.656;23.374;2022-09-06T04:33:52;95285.41;;;23.10;53.64
10462;BME280;5278;42.656;23.374;2022-09-06T04:36:19;95291.28;;;23.12;53.23
10462;BME280;5278;42.656;23.374;2022-09-06T04:38:46;95288.06;;;23.10;53.00
10462;BME280;5278;42.656;23.374;2022-09-06T04:41:14;95289.13;;;22.97;53.45
10462;BME280;5278;42.656;23.374;2022-09-06T04:43:41;95286.16;;;22.94;53.50
10462;BME280;5278;42.656;23.374;2022-09-06T04:46:14;95284.63;;;22.98;54.25
10462;BME280;5278;42.656;23.374;2022-09-06T04:48:44;95283.91;;;23.02;53.60
10462;BME280;5278;42.656;23.374;2022-09-06T04:51:11;95281.66;;;23.23;53.77
10462;BME280;5278;42.656;23.374;2022-09-06T04:53:38;95285.94;;;23.52;53.01
10462;BME280;5278;42.656;23.374;2022-09-06T04:56:05;95286.00;;;23.69;52.03
10462;BME280;5278;42.656;23.374;2022-09-06T04:58:32;95286.66;;;23.92;51.85
10462;BME280;5278;42.656;23.374;2022-09-06T05:00:59;95273.81;;;24.18;50.98
10462;BME280;5278;42.656;23.374;2022-09-06T05:03:26;95279.88;;;24.52;50.16
10462;BME280;5278;42.656;23.374;2022-09-06T05:06:02;95277.47;;;24.89;49.85
10462;BME280;5278;42.656;23.374;2022-09-06T05:08:29;95282.06;;;25.15;48.59
10462;BME280;5278;42.656;23.374;2022-09-06T05:10:56;95275.28;;;25.29;47.93
10462;BME280;5278;42.656;23.374;2022-09-06T05:13:23;95277.00;;;25.40;47.56
10462;BME280;5278;42.656;23.374;2022-09-06T05:15:49;95248.16;;;25.32;47.83
10462;BME280;5278;42.656;23.374;2022-09-06T05:18:17;95272.50;;;25.67;47.11
10462;BME280;5278;42.656;23.374;2022-09-06T05:20:50;95273.81;;;25.97;45.70
10462;BME280;5278;42.656;23.374;2022-09-06T05:23:18;95251.75;;;26.01;45.35
10462;BME280;5278;42.656;23.374;2022-09-06T05:25:45;95267.22;;;26.36;44.57
10462;BME280;5278;42.656;23.374;2022-09-06T05:28:12;95259.38;;;26.62;44.12
10462;BME280;5278;42.656;23.374;2022-09-06T05:30:39;95264.56;;;26.83;43.65
10462;BME280;5278;42.656;23.374;2022-09-06T05:33:07;95269.19;;;27.03;43.23
10462;BME280;5278;42.656;23.374;2022-09-06T05:35:34;95259.69;;;27.32;42.35
10462;BME280;5278;42.656;23.374;2022-09-06T05:38:00;95268.03;;;27.61;41.83
10462;BME280;5278;42.656;23.374;2022-09-06T05:40:29;95269.94;;;27.81;41.17
10462;BME280;5278;42.656;23.374;2022-09-06T05:42:55;95269.44;;;28.04;40.92
10462;BME280;5278;42.656;23.374;2022-09-06T05:45:22;95268.09;;;28.27;39.85
10462;BME280;5278;42.656;23.374;2022-09-06T05:47:49;95272.88;;;28.55;39.51
10462;BME280;5278;42.656;23.374;2022-09-06T05:50:16;95275.81;;;28.79;38.87
10462;BME280;5278;42.656;23.374;2022-09-06T05:52:43;95271.97;;;29.00;38.33
10462;BME280;5278;42.656;23.374;2022-09-06T05:55:10;95269.19;;;29.31;37.77
10462;BME280;5278;42.656;23.374;2022-09-06T05:57:38;95267.97;;;29.57;36.87
10462;BME280;5278;42.656;23.374;2022-09-06T06:00:05;95257.38;;;29.76;37.00
10462;BME280;5278;42.656;23.374;2022-09-06T06:02:33;95257.28;;;29.96;36.54
10462;BME280;5278;42.656;23.374;2022-09-06T06:04:59;95258.56;;;30.04;36.08
10462;BME280;5278;42.656;23.374;2022-09-06T06:07:26;95256.97;;;30.03;35.51
10462;BME280;5278;42.656;23.374;2022-09-06T06:09:53;95258.44;;;30.14;35.41
10462;BME280;5278;42.656;23.374;2022-09-06T06:12:21;95248.69;;;30.28;35.23
10462;BME280;5278;42.656;23.374;2022-09-06T06:14:51;95246.28;;;30.26;35.08
10462;BME280;5278;42.656;23.374;2022-09-06T06:17:21;95239.94;;;30.46;34.90
10462;BME280;5278;42.656;23.374;2022-09-06T06:19:50;95241.28;;;30.72;34.58
10462;BME280;5278;42.656;23.374;2022-09-06T06:22:17;95235.28;;;30.57;34.58
10462;BME280;5278;42.656;23.374;2022-09-06T06:24:46;95243.16;;;30.48;35.15
10462;BME280;5278;42.656;23.374;2022-09-06T06:27:13;95237.38;;;30.60;35.08
10462;BME280;5278;42.656;23.374;2022-09-06T06:29:40;95234.19;;;31.05;34.18
10462;BME280;5278;42.656;23.374;2022-09-06T06:32:09;95237.66;;;31.48;33.37
10462;BME280;5278;42.656;23.374;2022-09-06T06:34:35;95242.28;;;31.67;33.29
10462;BME280;5278;42.656;23.374;2022-09-06T06:37:02;95243.19;;;31.76;32.82
10462;BME280;5278;42.656;23.374;2022-09-06T06:39:29;95234.31;;;31.94;32.74
10462;BME280;5278;42.656;23.374;2022-09-06T06:41:57;95241.19;;;32.00;32.29
10462;BME280;5278;42.656;23.374;2022-09-06T06:44:24;95243.00;;;32.23;31.92
10462;BME280;5278;42.656;23.374;2022-09-06T06:46:52;95229.69;;;32.59;31.36
10462;BME280;5278;42.656;23.374;2022-09-06T06:49:23;95230.66;;;32.82;30.95
10462;BME280;5278;42.656;23.374;2022-09-06T06:51:50;95231.53;;;33.05;30.72
10462;BME280;5278;42.656;23.374;2022-09-06T06:54:17;95234.25;;;33.54;30.06
10462;BME280;5278;42.656;23.374;2022-09-06T06:56:44;95213.34;;;33.96;29.40
10462;BME280;5278;42.656;23.374;2022-09-06T06:59:11;95245.06;;;34.35;28.97
10462;BME280;5278;42.656;23.374;2022-09-06T07:01:39;95238.50;;;34.58;28.29
10462;BME280;5278;42.656;23.374;2022-09-06T07:04:06;95238.81;;;34.87;28.29
10462;BME280;5278;42.656;23.374;2022-09-06T07:06:47;95237.22;;;35.26;27.03
10462;BME280;5278;42.656;23.374;2022-09-06T07:09:15;95237.88;;;35.40;26.70
10462;BME280;5278;42.656;23.374;2022-09-06T07:11:42;95239.31;;;35.55;26.63
10462;BME280;5278;42.656;23.374;2022-09-06T07:14:13;95242.28;;;35.19;26.60
10462;BME280;5278;42.656;23.374;2022-09-06T07:16:41;95245.81;;;34.57;27.17
10462;BME280;5278;42.656;23.374;2022-09-06T07:19:08;95250.56;;;34.07;28.14
10462;BME280;5278;42.656;23.374;2022-09-06T07:21:35;95244.88;;;33.87;28.43
10462;BME280;5278;42.656;23.374;2022-09-06T07:24:04;95245.03;;;33.68;28.43
10462;BME280;5278;42.656;23.374;2022-09-06T07:26:32;95248.84;;;33.53;28.55
10462;BME280;5278;42.656;23.374;2022-09-06T07:29:01;95243.00;;;33.73;28.21
10462;BME280;5278;42.656;23.374;2022-09-06T07:31:29;95249.28;;;34.05;27.66
10462;BME280;5278;42.656;23.374;2022-09-06T07:33:57;95252.91;;;34.23;28.13
10462;BME280;5278;42.656;23.374;2022-09-06T07:36:24;95252.97;;;34.84;26.84
10462;BME280;5278;42.656;23.374;2022-09-06T07:38:51;95247.69;;;35.19;26.71
10462;BME280;5278;42.656;23.374;2022-09-06T07:41:19;95253.38;;;35.82;25.93
10462;BME280;5278;42.656;23.374;2022-09-06T07:43:47;95247.16;;;36.25;26.12
10462;BME280;5278;42.656;23.374;2022-09-06T07:46:18;95247.03;;;36.77;25.08
10462;BME280;5278;42.656;23.374;2022-09-06T07:48:46;95249.16;;;36.62;24.77
10462;BME280;5278;42.656;23.374;2022-09-06T07:51:15;95247.34;;;36.84;24.64
10462;BME280;5278;42.656;23.374;2022-09-06T07:53:46;95248.03;;;37.10;24.55
10462;BME280;5278;42.656;23.374;2022-09-06T07:56:14;95247.94;;;37.27;23.89
10462;BME280;5278;42.656;23.374;2022-09-06T07:58:43;95242.94;;;37.08;23.88
10462;BME280;5278;42.656;23.374;2022-09-06T08:01:16;95243.38;;;37.19;24.01
10462;BME280;5278;42.656;23.374;2022-09-06T08:03:46;95244.78;;;37.25;23.74
10462;BME280;5278;42.656;23.374;2022-09-06T08:06:13;95239.59;;;37.82;23.34
10462;BME280;5278;42.656;23.374;2022-09-06T08:08:40;95233.59;;;38.30;22.35
10462;BME280;5278;42.656;23.374;2022-09-06T08:11:07;95234.69;;;38.17;22.79
10462;BME280;5278;42.656;23.374;2022-09-06T08:13:35;95227.09;;;38.56;22.70
10462;BME280;5278;42.656;23.374;2022-09-06T08:16:06;95210.25;;;38.50;22.29
10462;BME280;5278;42.656;23.374;2022-09-06T08:18:34;95228.56;;;39.35;21.89
10462;BME280;5278;42.656;23.374;2022-09-06T08:21:07;95233.63;;;40.00;21.02
10462;BME280;5278;42.656;23.374;2022-09-06T08:23:35;95227.91;;;40.61;20.04
10462;BME280;5278;42.656;23.374;2022-09-06T08:26:04;95216.41;;;40.83;20.40
10462;BME280;5278;42.656;23.374;2022-09-06T08:28:30;95201.00;;;40.75;19.97
10462;BME280;5278;42.656;23.374;2022-09-06T08:31:06;95229.31;;;41.02;19.57
10462;BME280;5278;42.656;23.374;2022-09-06T08:33:34;95224.94;;;40.98;20.04
10462;BME280;5278;42.656;23.374;2022-09-06T08:36:01;95225.22;;;41.59;19.53
10462;BME280;5278;42.656;23.374;2022-09-06T08:38:28;95218.09;;;42.08;18.53
10462;BME280;5278;42.656;23.374;2022-09-06T08:41:06;95221.56;;;42.47;18.13
10462;BME280;5278;42.656;23.374;2022-09-06T08:43:34;95214.41;;;42.01;18.64
10462;BME280;5278;42.656;23.374;2022-09-06T08:46:02;95213.50;;;41.58;18.72
10462;BME280;5278;42.656;23.374;2022-09-06T08:48:33;95203.97;;;41.87;18.83
10462;BME280;5278;42.656;23.374;2022-09-06T08:51:21;95203.28;;;42.51;18.45
10462;BME280;5278;42.656;23.374;2022-09-06T08:53:59;95197.94;;;43.30;17.41
10462;BME280;5278;42.656;23.374;2022-09-06T08:56:33;95190.63;;;43.12;17.88
10462;BME280;5278;42.656;23.374;2022-09-06T08:59:05;95187.34;;;43.85;16.96
10462;BME280;5278;42.656;23.374;2022-09-06T09:01:37;95192.72;;;44.41;16.40
10462;BME280;5278;42.656;23.374;2022-09-06T09:04:13;95185.31;;;44.45;16.09
10462;BME280;5278;42.656;23.374;2022-09-06T09:06:43;95187.63;;;43.76;16.09
10462;BME280;5278;42.656;23.374;2022-09-06T09:09:15;95177.72;;;43.39;17.40
10462;BME280;5278;42.656;23.374;2022-09-06T09:11:46;95183.25;;;43.68;17.00
10462;BME280;5278;42.656;23.374;2022-09-06T09:14:19;95161.72;;;44.37;16.71
10462;BME280;5278;42.656;23.374;2022-09-06T09:16:49;95166.94;;;44.93;16.28
10462;BME280;5278;42.656;23.374;2022-09-06T09:19:18;95157.59;;;45.67;14.92
10462;BME280;5278;42.656;23.374;2022-09-06T09:21:45;95154.53;;;45.82;15.37
10462;BME280;5278;42.656;23.374;2022-09-06T09:24:14;95154.78;;;45.53;15.61
10462;BME280;5278;42.656;23.374;2022-09-06T09:26:47;95153.59;;;45.54;15.64
10462;BME280;5278;42.656;23.374;2022-09-06T09:29:15;95151.84;;;45.97;15.39
10462;BME280;5278;42.656;23.374;2022-09-06T09:31:46;95160.06;;;45.86;15.03
10462;BME280;5278;42.656;23.374;2022-09-06T09:34:30;95146.75;;;46.06;15.04
10462;BME280;5278;42.656;23.374;2022-09-06T09:37:12;95084.56;;;45.76;14.64
10462;BME280;5278;42.656;23.374;2022-09-06T09:39:39;95140.84;;;45.93;14.62
10462;BME280;5278;42.656;23.374;2022-09-06T09:42:06;95137.69;;;45.88;14.89
10462;BME280;5278;42.656;23.374;2022-09-06T09:44:35;95143.06;;;45.63;15.31
10462;BME280;5278;42.656;23.374;2022-09-06T09:47:13;95126.63;;;45.80;15.11
10462;BME280;5278;42.656;23.374;2022-09-06T09:49:49;95133.97;;;45.55;15.27
10462;BME280;5278;42.656;23.374;2022-09-06T09:52:23;95132.53;;;45.14;15.33
10462;BME280;5278;42.656;23.374;2022-09-06T09:54:50;95135.78;;;45.30;15.40
10462;BME280;5278;42.656;23.374;2022-09-06T09:57:21;95134.34;;;45.50;15.03
10462;BME280;5278;42.656;23.374;2022-09-06T09:59:51;95127.34;;;45.63;14.92
10462;BME280;5278;42.656;23.374;2022-09-06T10:02:23;95123.84;;;45.77;14.92
10462;BME280;5278;42.656;23.374;2022-09-06T10:04:59;95109.56;;;44.81;15.05
10462;BME280;5278;42.656;23.374;2022-09-06T10:07:27;95121.63;;;44.70;15.42
10462;BME280;5278;42.656;23.374;2022-09-06T10:09:58;95113.69;;;44.57;15.23
10462;BME280;5278;42.656;23.374;2022-09-06T10:12:30;95119.06;;;44.43;14.95
10462;BME280;5278;42.656;23.374;2022-09-06T10:14:58;95111.00;;;44.24;15.53
10462;BME280;5278;42.656;23.374;2022-09-06T10:17:30;95108.94;;;45.02;14.39
10462;BME280;5278;42.656;23.374;2022-09-06T10:20:04;95108.25;;;45.16;14.38
10462;BME280;5278;42.656;23.374;2022-09-06T10:22:42;95109.47;;;45.29;14.31
10462;BME280;5278;42.656;23.374;2022-09-06T10:25:30;95114.00;;;45.65;14.37
10462;BME280;5278;42.656;23.374;2022-09-06T10:28:26;95103.19;;;46.25;14.21
10462;BME280;5278;42.656;23.374;2022-09-06T10:34:33;95087.47;;;46.65;13.15
10462;BME280;5278;42.656;23.374;2022-09-06T10:37:14;95089.41;;;46.43;13.32
10462;BME280;5278;42.656;23.374;2022-09-06T10:39:47;95089.03;;;46.23;13.10
10462;BME280;5278;42.656;23.374;2022-09-06T10:42:24;95098.88;;;46.49;12.83
10462;BME280;5278;42.656;23.374;2022-09-06T10:45:06;95091.34;;;45.93;12.81
10462;BME280;5278;42.656;23.374;2022-09-06T10:47:53;95093.28;;;45.03;13.45
10462;BME280;5278;42.656;23.374;2022-09-06T10:50:21;95089.19;;;44.35;14.04
10462;BME280;5278;42.656;23.374;2022-09-06T10:52:53;95083.84;;;44.52;14.04
10462;BME280;5278;42.656;23.374;2022-09-06T10:55:21;95084.25;;;45.06;13.99
10462;BME280;5278;42.656;23.374;2022-09-06T10:57:52;95084.00;;;45.39;13.27
10462;BME280;5278;42.656;23.374;2022-09-06T11:00:20;95079.53;;;45.03;13.33
10462;BME280;5278;42.656;23.374;2022-09-06T11:02:51;95080.78;;;44.17;14.00
10462;BME280;5278;42.656;23.374;2022-09-06T11:05:23;95068.31;;;44.23;13.95
10462;BME280;5278;42.656;23.374;2022-09-06T11:07:55;95068.13;;;44.05;13.90
10462;BME280;5278;42.656;23.374;2022-09-06T11:10:27;95067.63;;;43.93;14.03
10462;BME280;5278;42.656;23.374;2022-09-06T11:13:00;95073.16;;;44.40;13.73
10462;BME280;5278;42.656;23.374;2022-09-06T11:15:32;95068.63;;;44.58;13.57
10462;BME280;5278;42.656;23.374;2022-09-06T11:18:05;95067.03;;;44.61;13.57
10462;BME280;5278;42.656;23.374;2022-09-06T11:20:38;95066.06;;;44.83;12.19
10462;BME280;5278;42.656;23.374;2022-09-06T11:26:30;95065.47;;;44.60;12.88
10462;BME280;5278;42.656;23.374;2022-09-06T11:29:02;95066.94;;;44.43;12.14
10462;BME280;5278;42.656;23.374;2022-09-06T11:31:32;95062.28;;;44.51;12.73
10462;BME280;5278;42.656;23.374;2022-09-06T11:34:06;95048.94;;;44.49;12.58
10462;BME280;5278;42.656;23.374;2022-09-06T11:36:37;95044.50;;;44.34;12.05
10462;BME280;5278;42.656;23.374;2022-09-06T11:39:07;95069.97;;;44.31;12.24
10462;BME280;5278;42.656;23.374;2022-09-06T11:41:38;95052.72;;;43.90;12.86
10462;BME280;5278;42.656;23.374;2022-09-06T11:44:07;94994.94;;;43.35;13.39
10462;BME280;5278;42.656;23.374;2022-09-06T11:46:57;95043.53;;;43.75;13.41
10462;BME280;5278;42.656;23.374;2022-09-06T11:49:32;95040.72;;;43.68;13.87
10462;BME280;5278;42.656;23.374;2022-09-06T11:52:00;95036.78;;;43.66;13.83
10462;BME280;5278;42.656;23.374;2022-09-06T11:54:36;95027.09;;;43.42;14.17
10462;BME280;5278;42.656;23.374;2022-09-06T11:57:13;95029.19;;;43.49;14.18
10462;BME280;5278;42.656;23.374;2022-09-06T11:59:50;95023.91;;;43.07;14.25
10462;BME280;5278;42.656;23.374;2022-09-06T12:02:33;95027.19;;;42.89;14.07
10462;BME280;5278;42.656;23.374;2022-09-06T12:05:26;95028.13;;;41.80;15.57
10462;BME280;5278;42.656;23.374;2022-09-06T12:08:21;95019.44;;;41.32;16.07
10462;BME280;5278;42.656;23.374;2022-09-06T12:10:55;95029.69;;;40.65;16.54
10462;BME280;5278;42.656;23.374;2022-09-06T12:13:38;95019.16;;;40.01;16.89
10462;BME280;5278;42.656;23.374;2022-09-06T12:16:06;95007.16;;;39.43;17.76
10462;BME280;5278;42.656;23.374;2022-09-06T12:18:58;95020.03;;;38.78;18.14
10462;BME280;5278;42.656;23.374;2022-09-06T12:21:42;95011.19;;;37.84;18.90
10462;BME280;5278;42.656;23.374;2022-09-06T12:27:15;95014.69;;;34.99;22.90
10462;BME280;5278;42.656;23.374;2022-09-06T12:29:53;95016.00;;;33.58;24.84
10462;BME280;5278;42.656;23.374;2022-09-06T12:32:26;95022.41;;;32.45;26.18
10462;BME280;5278;42.656;23.374;2022-09-06T12:34:54;95017.66;;;31.88;27.15
10462;BME280;5278;42.656;23.374;2022-09-06T12:37:34;95015.06;;;31.37;28.35
10462;BME280;5278;42.656;23.374;2022-09-06T12:40:03;95018.91;;;30.79;28.50
10462;BME280;5278;42.656;23.374;2022-09-06T12:42:31;95023.91;;;30.49;29.62
10462;BME280;5278;42.656;23.374;2022-09-06T12:45:03;95019.81;;;30.32;29.89
10462;BME280;5278;42.656;23.374;2022-09-06T12:47:33;95010.00;;;30.23;29.89
10462;BME280;5278;42.656;23.374;2022-09-06T12:50:12;95012.16;;;30.02;30.25
10462;BME280;5278;42.656;23.374;2022-09-06T12:52:48;95008.88;;;29.81;30.33
10462;BME280;5278;42.656;23.374;2022-09-06T12:55:19;95004.50;;;29.38;30.95
10462;BME280;5278;42.656;23.374;2022-09-06T12:57:50;94965.41;;;28.74;31.02
10462;BME280;5278;42.656;23.374;2022-09-06T13:00:19;94984.53;;;28.52;32.20
10462;BME280;5278;42.656;23.374;2022-09-06T13:02:53;95004.13;;;28.38;32.00
10462;BME280;5278;42.656;23.374;2022-09-06T13:05:23;94995.66;;;28.20;32.06
10462;BME280;5278;42.656;23.374;2022-09-06T13:07:53;95004.50;;;28.16;32.31
10462;BME280;5278;42.656;23.374;2022-09-06T13:10:23;95007.06;;;28.41;32.39
10462;BME280;5278;42.656;23.374;2022-09-06T13:12:54;94962.84;;;28.54;32.33
10462;BME280;5278;42.656;23.374;2022-09-06T13:15:25;95009.53;;;29.10;31.71
10462;BME280;5278;42.656;23.374;2022-09-06T13:17:53;94997.03;;;29.30;31.09
10462;BME280;5278;42.656;23.374;2022-09-06T13:20:26;94999.66;;;29.40;31.24
10462;BME280;5278;42.656;23.374;2022-09-06T13:23:05;94993.59;;;29.24;31.16
10462;BME280;5278;42.656;23.374;2022-09-06T13:25:33;95007.53;;;28.92;32.60
10462;BME280;5278;42.656;23.374;2022-09-06T13:28:00;94993.34;;;28.53;33.88
10462;BME280;5278;42.656;23.374;2022-09-06T13:30:41;94995.59;;;28.31;33.56